sensor_id;sensor_type;location;lat;lon;timestamp;P1;durP1;ratioP1;P2;durP2;ratioP2
77775;SDS011;66965;43.328;6.668;2023-05-07T00:01:11;4.90;;;3.23;;
77775;SDS011;66965;43.328;6.668;2023-05-07T00:03:37;7.60;;;2.87;;
77775;SDS011;66965;43.328;6.668;2023-05-07T00:06:02;4.68;;;2.80;;
77775;SDS011;66965;43.328;6.668;2023-05-07T00:08:28;6.07;;;3.05;;
77775;SDS011;66965;43.328;6.668;2023-05-07T00:10:53;7.32;;;3.15;;
77775;SDS011;66965;43.328;6.668;2023-05-07T00:13:19;6.00;;;3.08;;
77775;SDS011;66965;43.328;6.668;2023-05-07T00:15:44;4.47;;;2.97;;
77775;SDS011;66965;43.328;6.668;2023-05-07T00:18:10;5.33;;;2.70;;
77775;SDS011;66965;43.328;6.668;2023-05-07T00:20:35;5.70;;;3.27;;
77775;SDS011;66965;43.328;6.668;2023-05-07T00:23:00;6.10;;;3.13;;
77775;SDS011;66965;43.328;6.668;2023-05-07T00:25:25;4.90;;;2.60;;
77775;SDS011;66965;43.328;6.668;2023-05-07T00:27:51;5.90;;;3.20;;
77775;SDS011;66965;43.328;6.668;2023-05-07T00:30:16;5.10;;;3.00;;
77775;SDS011;66965;43.328;6.668;2023-05-07T00:32:41;5.35;;;2.63;;
77775;SDS011;66965;43.328;6.668;2023-05-07T00:35:07;5.60;;;3.47;;
77775;SDS011;66965;43.328;6.668;2023-05-07T00:37:32;5.22;;;2.60;;
77775;SDS011;66965;43.328;6.668;2023-05-07T00:39:57;4.57;;;2.50;;
77775;SDS011;66965;43.328;6.668;2023-05-07T00:42:23;5.53;;;2.73;;
77775;SDS011;66965;43.328;6.668;2023-05-07T00:44:49;5.72;;;2.80;;
77775;SDS011;66965;43.328;6.668;2023-05-07T00:47:14;4.87;;;2.53;;
77775;SDS011;66965;43.328;6.668;2023-05-07T00:49:43;5.72;;;2.97;;
77775;SDS011;66965;43.328;6.668;2023-05-07T00:52:13;4.95;;;3.10;;
77775;SDS011;66965;43.328;6.668;2023-05-07T00:54:38;4.57;;;2.70;;
77775;SDS011;66965;43.328;6.668;2023-05-07T00:57:05;5.60;;;3.10;;
77775;SDS011;66965;43.328;6.668;2023-05-07T00:59:31;5.55;;;3.20;;
77775;SDS011;66965;43.328;6.668;2023-05-07T01:01:57;7.75;;;3.05;;
77775;SDS011;66965;43.328;6.668;2023-05-07T01:04:22;7.80;;;3.20;;
77775;SDS011;66965;43.328;6.668;2023-05-07T01:06:47;5.67;;;3.00;;
77775;SDS011;66965;43.328;6.668;2023-05-07T01:09:13;7.35;;;3.13;;
77775;SDS011;66965;43.328;6.668;2023-05-07T01:11:39;5.40;;;2.92;;
77775;SDS011;66965;43.328;6.668;2023-05-07T01:14:04;5.63;;;3.40;;
77775;SDS011;66965;43.328;6.668;2023-05-07T01:16:30;5.88;;;3.60;;
77775;SDS011;66965;43.328;6.668;2023-05-07T01:18:56;5.10;;;3.20;;
77775;SDS011;66965;43.328;6.668;2023-05-07T01:21:24;8.00;;;3.30;;
77775;SDS011;66965;43.328;6.668;2023-05-07T01:23:50;5.75;;;3.63;;
77775;SDS011;66965;43.328;6.668;2023-05-07T01:26:15;8.53;;;3.50;;
77775;SDS011;66965;43.328;6.668;2023-05-07T01:28:41;7.35;;;3.30;;
77775;SDS011;66965;43.328;6.668;2023-05-07T01:31:06;7.00;;;4.20;;
77775;SDS011;66965;43.328;6.668;2023-05-07T01:33:33;5.25;;;3.17;;
77775;SDS011;66965;43.328;6.668;2023-05-07T01:36:00;4.72;;;3.20;;
77775;SDS011;66965;43.328;6.668;2023-05-07T01:38:27;5.70;;;3.17;;
77775;SDS011;66965;43.328;6.668;2023-05-07T01:40:52;5.10;;;3.13;;
77775;SDS011;66965;43.328;6.668;2023-05-07T01:43:18;5.40;;;3.40;;
77775;SDS011;66965;43.328;6.668;2023-05-07T01:45:44;4.85;;;3.10;;
77775;SDS011;66965;43.328;6.668;2023-05-07T01:48:11;5.80;;;3.55;;
77775;SDS011;66965;43.328;6.668;2023-05-07T01:50:36;6.25;;;3.40;;
77775;SDS011;66965;43.328;6.668;2023-05-07T01:53:02;6.32;;;3.85;;
77775;SDS011;66965;43.328;6.668;2023-05-07T01:55:27;6.80;;;3.00;;
77775;SDS011;66965;43.328;6.668;2023-05-07T01:57:53;6.75;;;3.58;;
77775;SDS011;66965;43.328;6.668;2023-05-07T02:00:18;5.53;;;3.30;;
77775;SDS011;66965;43.328;6.668;2023-05-07T02:02:44;6.03;;;3.80;;
77775;SDS011;66965;43.328;6.668;2023-05-07T02:05:09;7.20;;;4.53;;
77775;SDS011;66965;43.328;6.668;2023-05-07T02:07:35;6.50;;;3.85;;
77775;SDS011;66965;43.328;6.668;2023-05-07T02:10:00;8.87;;;4.00;;
77775;SDS011;66965;43.328;6.668;2023-05-07T02:12:25;6.67;;;4.07;;
77775;SDS011;66965;43.328;6.668;2023-05-07T02:14:50;7.70;;;4.23;;
77775;SDS011;66965;43.328;6.668;2023-05-07T02:17:16;7.63;;;4.43;;
77775;SDS011;66965;43.328;6.668;2023-05-07T02:19:41;6.27;;;3.83;;
77775;SDS011;66965;43.328;6.668;2023-05-07T02:22:07;6.57;;;3.97;;
77775;SDS011;66965;43.328;6.668;2023-05-07T02:24:32;5.47;;;3.88;;
77775;SDS011;66965;43.328;6.668;2023-05-07T02:26:57;6.03;;;3.67;;
77775;SDS011;66965;43.328;6.668;2023-05-07T02:29:22;6.00;;;3.50;;
77775;SDS011;66965;43.328;6.668;2023-05-07T02:31:48;8.17;;;3.50;;
77775;SDS011;66965;43.328;6.668;2023-05-07T02:34:16;6.90;;;3.88;;
77775;SDS011;66965;43.328;6.668;2023-05-07T02:36:41;6.30;;;3.70;;
77775;SDS011;66965;43.328;6.668;2023-05-07T02:39:06;6.60;;;3.50;;
77775;SDS011;66965;43.328;6.668;2023-05-07T02:41:31;6.17;;;3.50;;
77775;SDS011;66965;43.328;6.668;2023-05-07T02:43:57;5.30;;;3.40;;
77775;SDS011;66965;43.328;6.668;2023-05-07T02:46:22;7.53;;;3.60;;
77775;SDS011;66965;43.328;6.668;2023-05-07T02:48:47;5.70;;;3.73;;
77775;SDS011;66965;43.328;6.668;2023-05-07T02:51:13;6.13;;;3.97;;
77775;SDS011;66965;43.328;6.668;2023-05-07T02:53:38;6.25;;;3.45;;
77775;SDS011;66965;43.328;6.668;2023-05-07T02:56:04;6.30;;;3.77;;
77775;SDS011;66965;43.328;6.668;2023-05-07T02:58:30;7.70;;;4.10;;
77775;SDS011;66965;43.328;6.668;2023-05-07T03:00:55;5.63;;;3.80;;
77775;SDS011;66965;43.328;6.668;2023-05-07T03:03:21;7.40;;;4.77;;
77775;SDS011;66965;43.328;6.668;2023-05-07T03:05:46;8.05;;;4.47;;
77775;SDS011;66965;43.328;6.668;2023-05-07T03:08:12;5.90;;;4.37;;
77775;SDS011;66965;43.328;6.668;2023-05-07T03:13:03;7.73;;;4.33;;
77775;SDS011;66965;43.328;6.668;2023-05-07T03:15:29;8.20;;;4.15;;
77775;SDS011;66965;43.328;6.668;2023-05-07T03:17:54;8.73;;;4.50;;
77775;SDS011;66965;43.328;6.668;2023-05-07T03:20:20;7.43;;;4.18;;
77775;SDS011;66965;43.328;6.668;2023-05-07T03:22:45;7.32;;;4.00;;
77775;SDS011;66965;43.328;6.668;2023-05-07T03:25:10;7.10;;;4.20;;
77775;SDS011;66965;43.328;6.668;2023-05-07T03:27:36;6.03;;;3.88;;
77775;SDS011;66965;43.328;6.668;2023-05-07T03:30:01;6.78;;;3.83;;
77775;SDS011;66965;43.328;6.668;2023-05-07T03:32:26;8.50;;;4.33;;
77775;SDS011;66965;43.328;6.668;2023-05-07T03:34:52;6.03;;;4.10;;
77775;SDS011;66965;43.328;6.668;2023-05-07T03:37:17;8.50;;;4.03;;
77775;SDS011;66965;43.328;6.668;2023-05-07T03:39:43;5.63;;;4.22;;
77775;SDS011;66965;43.328;6.668;2023-05-07T03:42:08;8.83;;;4.70;;
77775;SDS011;66965;43.328;6.668;2023-05-07T03:44:33;5.82;;;3.80;;
77775;SDS011;66965;43.328;6.668;2023-05-07T03:46:58;7.07;;;4.03;;
77775;SDS011;66965;43.328;6.668;2023-05-07T03:49:24;5.85;;;3.90;;
77775;SDS011;66965;43.328;6.668;2023-05-07T03:51:49;6.10;;;3.67;;
77775;SDS011;66965;43.328;6.668;2023-05-07T03:54:15;10.23;;;3.30;;
77775;SDS011;66965;43.328;6.668;2023-05-07T03:56:40;6.33;;;3.47;;
77775;SDS011;66965;43.328;6.668;2023-05-07T03:59:05;6.23;;;3.50;;
77775;SDS011;66965;43.328;6.668;2023-05-07T04:01:30;5.57;;;3.47;;
77775;SDS011;66965;43.328;6.668;2023-05-07T04:03:56;5.17;;;3.37;;
77775;SDS011;66965;43.328;6.668;2023-05-07T04:06:21;6.20;;;3.50;;
77775;SDS011;66965;43.328;6.668;2023-05-07T04:08:47;6.18;;;3.53;;
77775;SDS011;66965;43.328;6.668;2023-05-07T04:11:12;6.30;;;3.67;;
77775;SDS011;66965;43.328;6.668;2023-05-07T04:13:37;5.03;;;3.30;;
77775;SDS011;66965;43.328;6.668;2023-05-07T04:16:03;5.67;;;3.50;;
77775;SDS011;66965;43.328;6.668;2023-05-07T04:18:29;6.38;;;3.80;;
77775;SDS011;66965;43.328;6.668;2023-05-07T04:20:54;5.85;;;4.32;;
77775;SDS011;66965;43.328;6.668;2023-05-07T04:23:20;5.93;;;3.83;;
77775;SDS011;66965;43.328;6.668;2023-05-07T04:25:45;6.10;;;3.95;;
77775;SDS011;66965;43.328;6.668;2023-05-07T04:28:10;7.10;;;4.83;;
77775;SDS011;66965;43.328;6.668;2023-05-07T04:30:36;6.15;;;4.22;;
77775;SDS011;66965;43.328;6.668;2023-05-07T04:33:02;6.68;;;4.30;;
77775;SDS011;66965;43.328;6.668;2023-05-07T04:35:27;7.23;;;4.03;;
77775;SDS011;66965;43.328;6.668;2023-05-07T04:37:52;6.10;;;3.60;;
77775;SDS011;66965;43.328;6.668;2023-05-07T04:40:17;7.53;;;4.13;;
77775;SDS011;66965;43.328;6.668;2023-05-07T04:42:43;8.55;;;4.47;;
77775;SDS011;66965;43.328;6.668;2023-05-07T04:45:08;6.77;;;3.40;;
77775;SDS011;66965;43.328;6.668;2023-05-07T04:47:35;5.93;;;4.07;;
77775;SDS011;66965;43.328;6.668;2023-05-07T04:50:00;7.28;;;4.28;;
77775;SDS011;66965;43.328;6.668;2023-05-07T04:52:26;6.93;;;4.13;;
77775;SDS011;66965;43.328;6.668;2023-05-07T04:54:51;6.45;;;4.10;;
77775;SDS011;66965;43.328;6.668;2023-05-07T04:57:16;7.53;;;4.20;;
77775;SDS011;66965;43.328;6.668;2023-05-07T04:59:42;5.22;;;3.50;;
77775;SDS011;66965;43.328;6.668;2023-05-07T05:02:08;5.55;;;3.55;;
77775;SDS011;66965;43.328;6.668;2023-05-07T05:04:33;5.57;;;3.57;;
77775;SDS011;66965;43.328;6.668;2023-05-07T05:06:58;6.33;;;3.80;;
77775;SDS011;66965;43.328;6.668;2023-05-07T05:09:24;5.70;;;4.37;;
77775;SDS011;66965;43.328;6.668;2023-05-07T05:11:49;6.63;;;4.13;;
77775;SDS011;66965;43.328;6.668;2023-05-07T05:14:14;7.10;;;3.78;;
77775;SDS011;66965;43.328;6.668;2023-05-07T05:16:39;6.27;;;4.40;;
77775;SDS011;66965;43.328;6.668;2023-05-07T05:19:05;6.87;;;4.63;;
77775;SDS011;66965;43.328;6.668;2023-05-07T05:21:30;6.17;;;3.80;;
77775;SDS011;66965;43.328;6.668;2023-05-07T05:23:56;6.07;;;3.60;;
77775;SDS011;66965;43.328;6.668;2023-05-07T05:26:21;6.50;;;3.87;;
77775;SDS011;66965;43.328;6.668;2023-05-07T05:28:46;5.93;;;4.07;;
77775;SDS011;66965;43.328;6.668;2023-05-07T05:31:12;5.87;;;3.60;;
77775;SDS011;66965;43.328;6.668;2023-05-07T05:33:37;5.80;;;3.93;;
77775;SDS011;66965;43.328;6.668;2023-05-07T05:36:02;6.07;;;4.00;;
77775;SDS011;66965;43.328;6.668;2023-05-07T05:38:28;5.53;;;3.78;;
77775;SDS011;66965;43.328;6.668;2023-05-07T05:40:53;6.60;;;3.90;;
77775;SDS011;66965;43.328;6.668;2023-05-07T05:43:18;5.80;;;3.60;;
77775;SDS011;66965;43.328;6.668;2023-05-07T05:45:43;6.13;;;3.97;;
77775;SDS011;66965;43.328;6.668;2023-05-07T05:48:09;5.27;;;3.63;;
77775;SDS011;66965;43.328;6.668;2023-05-07T05:50:34;5.80;;;3.35;;
77775;SDS011;66965;43.328;6.668;2023-05-07T05:53:01;5.35;;;3.40;;
77775;SDS011;66965;43.328;6.668;2023-05-07T05:55:26;4.80;;;3.43;;
77775;SDS011;66965;43.328;6.668;2023-05-07T05:57:52;5.70;;;3.90;;
77775;SDS011;66965;43.328;6.668;2023-05-07T06:00:17;6.63;;;3.53;;
77775;SDS011;66965;43.328;6.668;2023-05-07T06:02:42;6.25;;;3.55;;
77775;SDS011;66965;43.328;6.668;2023-05-07T06:05:08;5.37;;;3.80;;
77775;SDS011;66965;43.328;6.668;2023-05-07T06:07:33;5.40;;;2.90;;
77775;SDS011;66965;43.328;6.668;2023-05-07T06:09:59;6.82;;;4.00;;
77775;SDS011;66965;43.328;6.668;2023-05-07T06:12:24;7.17;;;3.30;;
77775;SDS011;66965;43.328;6.668;2023-05-07T06:14:50;4.67;;;3.07;;
77775;SDS011;66965;43.328;6.668;2023-05-07T06:17:15;5.95;;;3.15;;
77775;SDS011;66965;43.328;6.668;2023-05-07T06:19:41;6.00;;;3.33;;
77775;SDS011;66965;43.328;6.668;2023-05-07T06:22:06;5.57;;;4.00;;
77775;SDS011;66965;43.328;6.668;2023-05-07T06:24:31;5.10;;;3.20;;
77775;SDS011;66965;43.328;6.668;2023-05-07T06:26:56;5.20;;;3.30;;
77775;SDS011;66965;43.328;6.668;2023-05-07T06:29:23;5.63;;;3.20;;
77775;SDS011;66965;43.328;6.668;2023-05-07T06:31:50;6.53;;;3.50;;
77775;SDS011;66965;43.328;6.668;2023-05-07T06:34:15;4.87;;;2.77;;
77775;SDS011;66965;43.328;6.668;2023-05-07T06:36:41;7.13;;;4.20;;
77775;SDS011;66965;43.328;6.668;2023-05-07T06:39:06;5.00;;;2.83;;
77775;SDS011;66965;43.328;6.668;2023-05-07T06:41:31;10.90;;;2.72;;
77775;SDS011;66965;43.328;6.668;2023-05-07T06:43:57;5.30;;;3.53;;
77775;SDS011;66965;43.328;6.668;2023-05-07T06:46:22;5.60;;;3.17;;
77775;SDS011;66965;43.328;6.668;2023-05-07T06:48:47;5.70;;;3.20;;
77775;SDS011;66965;43.328;6.668;2023-05-07T06:51:13;5.70;;;3.40;;
77775;SDS011;66965;43.328;6.668;2023-05-07T06:53:38;7.60;;;4.00;;
77775;SDS011;66965;43.328;6.668;2023-05-07T06:56:03;7.07;;;4.47;;
77775;SDS011;66965;43.328;6.668;2023-05-07T06:58:29;6.75;;;3.35;;
77775;SDS011;66965;43.328;6.668;2023-05-07T07:00:55;7.03;;;3.85;;
77775;SDS011;66965;43.328;6.668;2023-05-07T07:03:20;9.63;;;4.20;;
77775;SDS011;66965;43.328;6.668;2023-05-07T07:05:45;7.75;;;4.18;;
77775;SDS011;66965;43.328;6.668;2023-05-07T07:08:11;6.00;;;3.33;;
77775;SDS011;66965;43.328;6.668;2023-05-07T07:10:36;6.63;;;3.60;;
77775;SDS011;66965;43.328;6.668;2023-05-07T07:13:01;6.55;;;3.80;;
77775;SDS011;66965;43.328;6.668;2023-05-07T07:15:27;9.23;;;3.93;;
77775;SDS011;66965;43.328;6.668;2023-05-07T07:17:52;5.07;;;3.43;;
77775;SDS011;66965;43.328;6.668;2023-05-07T07:20:17;5.27;;;3.50;;
77775;SDS011;66965;43.328;6.668;2023-05-07T07:22:42;4.67;;;3.20;;
77775;SDS011;66965;43.328;6.668;2023-05-07T07:25:08;4.63;;;2.90;;
77775;SDS011;66965;43.328;6.668;2023-05-07T07:27:33;5.30;;;3.40;;
77775;SDS011;66965;43.328;6.668;2023-05-07T07:29:59;5.23;;;3.10;;
77775;SDS011;66965;43.328;6.668;2023-05-07T07:32:24;4.73;;;3.00;;
77775;SDS011;66965;43.328;6.668;2023-05-07T07:34:49;7.00;;;3.50;;
77775;SDS011;66965;43.328;6.668;2023-05-07T07:37:15;6.70;;;3.13;;
77775;SDS011;66965;43.328;6.668;2023-05-07T07:39:40;6.10;;;3.00;;
77775;SDS011;66965;43.328;6.668;2023-05-07T07:42:06;6.10;;;3.13;;
77775;SDS011;66965;43.328;6.668;2023-05-07T07:44:31;4.67;;;2.90;;
77775;SDS011;66965;43.328;6.668;2023-05-07T07:46:56;4.80;;;3.10;;
77775;SDS011;66965;43.328;6.668;2023-05-07T07:49:22;5.80;;;3.40;;
77775;SDS011;66965;43.328;6.668;2023-05-07T07:51:47;5.63;;;2.93;;
77775;SDS011;66965;43.328;6.668;2023-05-07T07:54:12;4.53;;;3.20;;
77775;SDS011;66965;43.328;6.668;2023-05-07T07:56:37;5.83;;;3.20;;
77775;SDS011;66965;43.328;6.668;2023-05-07T07:59:03;5.40;;;2.70;;
77775;SDS011;66965;43.328;6.668;2023-05-07T08:01:29;5.03;;;3.60;;
77775;SDS011;66965;43.328;6.668;2023-05-07T08:03:55;5.60;;;3.65;;
77775;SDS011;66965;43.328;6.668;2023-05-07T08:06:20;6.45;;;3.88;;
77775;SDS011;66965;43.328;6.668;2023-05-07T08:08:45;6.18;;;3.38;;
77775;SDS011;66965;43.328;6.668;2023-05-07T08:11:11;5.10;;;2.97;;
77775;SDS011;66965;43.328;6.668;2023-05-07T08:13:36;5.57;;;3.03;;
77775;SDS011;66965;43.328;6.668;2023-05-07T08:16:03;5.30;;;3.55;;
77775;SDS011;66965;43.328;6.668;2023-05-07T08:18:28;4.38;;;2.70;;
77775;SDS011;66965;43.328;6.668;2023-05-07T08:20:54;9.35;;;2.95;;
77775;SDS011;66965;43.328;6.668;2023-05-07T08:23:19;8.25;;;3.13;;
77775;SDS011;66965;43.328;6.668;2023-05-07T08:25:45;5.68;;;2.97;;
77775;SDS011;66965;43.328;6.668;2023-05-07T08:28:10;6.90;;;2.90;;
77775;SDS011;66965;43.328;6.668;2023-05-07T08:30:35;5.27;;;3.07;;
77775;SDS011;66965;43.328;6.668;2023-05-07T08:33:01;5.43;;;3.50;;
77775;SDS011;66965;43.328;6.668;2023-05-07T08:35:26;6.70;;;2.70;;
77775;SDS011;66965;43.328;6.668;2023-05-07T08:37:52;5.55;;;2.95;;
77775;SDS011;66965;43.328;6.668;2023-05-07T08:40:17;5.43;;;3.13;;
77775;SDS011;66965;43.328;6.668;2023-05-07T08:42:42;5.10;;;2.80;;
77775;SDS011;66965;43.328;6.668;2023-05-07T08:45:09;6.00;;;2.92;;
77775;SDS011;66965;43.328;6.668;2023-05-07T08:47:38;6.88;;;3.53;;
77775;SDS011;66965;43.328;6.668;2023-05-07T08:50:05;5.38;;;3.20;;
77775;SDS011;66965;43.328;6.668;2023-05-07T08:52:31;5.78;;;3.35;;
77775;SDS011;66965;43.328;6.668;2023-05-07T08:54:56;5.38;;;3.40;;
77775;SDS011;66965;43.328;6.668;2023-05-07T08:57:22;5.75;;;3.70;;
77775;SDS011;66965;43.328;6.668;2023-05-07T08:59:49;5.38;;;3.30;;
77775;SDS011;66965;43.328;6.668;2023-05-07T09:02:15;9.48;;;3.92;;
77775;SDS011;66965;43.328;6.668;2023-05-07T09:04:41;5.90;;;3.60;;
77775;SDS011;66965;43.328;6.668;2023-05-07T09:07:06;6.93;;;3.53;;
77775;SDS011;66965;43.328;6.668;2023-05-07T09:09:32;6.43;;;3.83;;
77775;SDS011;66965;43.328;6.668;2023-05-07T09:11:58;6.65;;;3.85;;
77775;SDS011;66965;43.328;6.668;2023-05-07T09:16:51;6.33;;;4.20;;
77775;SDS011;66965;43.328;6.668;2023-05-07T09:19:21;6.50;;;4.30;;
77775;SDS011;66965;43.328;6.668;2023-05-07T09:21:47;6.93;;;4.20;;
77775;SDS011;66965;43.328;6.668;2023-05-07T09:24:14;6.30;;;3.93;;
77775;SDS011;66965;43.328;6.668;2023-05-07T09:26:40;7.10;;;4.38;;
77775;SDS011;66965;43.328;6.668;2023-05-07T09:29:05;5.80;;;3.80;;
77775;SDS011;66965;43.328;6.668;2023-05-07T09:31:31;6.53;;;4.00;;
77775;SDS011;66965;43.328;6.668;2023-05-07T09:36:21;7.73;;;3.87;;
77775;SDS011;66965;43.328;6.668;2023-05-07T09:38:47;5.23;;;3.87;;
77775;SDS011;66965;43.328;6.668;2023-05-07T09:41:12;6.33;;;3.93;;
77775;SDS011;66965;43.328;6.668;2023-05-07T09:46:05;8.10;;;4.97;;
77775;SDS011;66965;43.328;6.668;2023-05-07T09:48:31;10.40;;;4.22;;
77775;SDS011;66965;43.328;6.668;2023-05-07T09:53:25;6.20;;;3.38;;
77775;SDS011;66965;43.328;6.668;2023-05-07T09:55:50;5.93;;;3.00;;
77775;SDS011;66965;43.328;6.668;2023-05-07T09:58:16;7.32;;;2.88;;
77775;SDS011;66965;43.328;6.668;2023-05-07T10:00:42;5.15;;;3.35;;
77775;SDS011;66965;43.328;6.668;2023-05-07T10:03:08;5.88;;;3.40;;
77775;SDS011;66965;43.328;6.668;2023-05-07T10:07:59;8.82;;;4.22;;
77775;SDS011;66965;43.328;6.668;2023-05-07T10:10:25;8.65;;;3.45;;
77775;SDS011;66965;43.328;6.668;2023-05-07T10:12:51;5.63;;;3.72;;
77775;SDS011;66965;43.328;6.668;2023-05-07T10:15:16;5.03;;;3.10;;
77775;SDS011;66965;43.328;6.668;2023-05-07T10:17:42;6.30;;;3.00;;
77775;SDS011;66965;43.328;6.668;2023-05-07T10:20:07;5.97;;;3.27;;
77775;SDS011;66965;43.328;6.668;2023-05-07T10:22:41;9.85;;;3.15;;
77775;SDS011;66965;43.328;6.668;2023-05-07T10:25:16;5.70;;;2.78;;
77775;SDS011;66965;43.328;6.668;2023-05-07T10:27:42;5.57;;;2.60;;
77775;SDS011;66965;43.328;6.668;2023-05-07T10:30:12;6.13;;;2.78;;
77775;SDS011;66965;43.328;6.668;2023-05-07T10:32:42;5.80;;;2.63;;
77775;SDS011;66965;43.328;6.668;2023-05-07T10:35:30;4.05;;;2.40;;
77775;SDS011;66965;43.328;6.668;2023-05-07T10:37:55;9.90;;;2.63;;
77775;SDS011;66965;43.328;6.668;2023-05-07T10:40:20;6.90;;;2.45;;
77775;SDS011;66965;43.328;6.668;2023-05-07T10:42:59;6.75;;;3.00;;
77775;SDS011;66965;43.328;6.668;2023-05-07T10:45:25;6.05;;;3.67;;
77775;SDS011;66965;43.328;6.668;2023-05-07T10:48:06;8.77;;;2.53;;
77775;SDS011;66965;43.328;6.668;2023-05-07T10:50:32;4.82;;;2.95;;
77775;SDS011;66965;43.328;6.668;2023-05-07T10:53:19;5.50;;;2.50;;
77775;SDS011;66965;43.328;6.668;2023-05-07T10:55:46;5.18;;;2.30;;
77775;SDS011;66965;43.328;6.668;2023-05-07T11:00:46;5.93;;;2.50;;
77775;SDS011;66965;43.328;6.668;2023-05-07T11:03:11;5.78;;;2.15;;
77775;SDS011;66965;43.328;6.668;2023-05-07T11:05:37;3.72;;;1.90;;
77775;SDS011;66965;43.328;6.668;2023-05-07T11:08:03;6.88;;;2.92;;
77775;SDS011;66965;43.328;6.668;2023-05-07T11:12:54;5.70;;;1.75;;
77775;SDS011;66965;43.328;6.668;2023-05-07T11:17:55;4.30;;;1.83;;
77775;SDS011;66965;43.328;6.668;2023-05-07T11:20:20;9.32;;;2.90;;
77775;SDS011;66965;43.328;6.668;2023-05-07T11:25:11;4.50;;;1.90;;
77775;SDS011;66965;43.328;6.668;2023-05-07T11:27:42;4.07;;;1.83;;
77775;SDS011;66965;43.328;6.668;2023-05-07T11:32:32;9.27;;;2.90;;
77775;SDS011;66965;43.328;6.668;2023-05-07T11:37:23;4.27;;;1.70;;
77775;SDS011;66965;43.328;6.668;2023-05-07T11:39:49;5.03;;;2.25;;
77775;SDS011;66965;43.328;6.668;2023-05-07T11:42:32;4.57;;;2.17;;
77775;SDS011;66965;43.328;6.668;2023-05-07T11:44:57;5.15;;;2.20;;
77775;SDS011;66965;43.328;6.668;2023-05-07T11:49:48;3.83;;;1.98;;
77775;SDS011;66965;43.328;6.668;2023-05-07T11:52:14;4.05;;;2.25;;
77775;SDS011;66965;43.328;6.668;2023-05-07T11:57:05;5.45;;;2.10;;
77775;SDS011;66965;43.328;6.668;2023-05-07T11:59:41;9.50;;;2.30;;
77775;SDS011;66965;43.328;6.668;2023-05-07T12:02:06;3.95;;;2.22;;
77775;SDS011;66965;43.328;6.668;2023-05-07T12:06:57;5.95;;;2.20;;
77775;SDS011;66965;43.328;6.668;2023-05-07T12:11:48;4.07;;;1.60;;
77775;SDS011;66965;43.328;6.668;2023-05-07T12:16:40;5.72;;;2.00;;
77775;SDS011;66965;43.328;6.668;2023-05-07T12:19:06;3.25;;;1.60;;
77775;SDS011;66965;43.328;6.668;2023-05-07T12:21:33;5.38;;;1.67;;
77775;SDS011;66965;43.328;6.668;2023-05-07T12:23:59;5.00;;;1.90;;
77775;SDS011;66965;43.328;6.668;2023-05-07T12:26:25;5.00;;;2.05;;
77775;SDS011;66965;43.328;6.668;2023-05-07T12:28:50;4.78;;;1.95;;
77775;SDS011;66965;43.328;6.668;2023-05-07T12:33:41;4.47;;;1.90;;
77775;SDS011;66965;43.328;6.668;2023-05-07T12:38:34;4.65;;;1.60;;
77775;SDS011;66965;43.328;6.668;2023-05-07T12:40:59;5.05;;;2.00;;
77775;SDS011;66965;43.328;6.668;2023-05-07T12:45:50;4.17;;;1.60;;
77775;SDS011;66965;43.328;6.668;2023-05-07T12:48:16;4.93;;;1.90;;
77775;SDS011;66965;43.328;6.668;2023-05-07T12:53:08;5.03;;;1.80;;
77775;SDS011;66965;43.328;6.668;2023-05-07T12:55:41;4.07;;;1.38;;
77775;SDS011;66965;43.328;6.668;2023-05-07T12:58:06;5.15;;;1.70;;
77775;SDS011;66965;43.328;6.668;2023-05-07T13:00:33;4.80;;;1.80;;
77775;SDS011;66965;43.328;6.668;2023-05-07T13:02:58;4.30;;;1.83;;
77775;SDS011;66965;43.328;6.668;2023-05-07T13:05:23;4.00;;;1.60;;
77775;SDS011;66965;43.328;6.668;2023-05-07T13:10:14;3.05;;;1.30;;
77775;SDS011;66965;43.328;6.668;2023-05-07T13:15:04;2.90;;;1.17;;
77775;SDS011;66965;43.328;6.668;2023-05-07T13:19:56;6.18;;;1.42;;
77775;SDS011;66965;43.328;6.668;2023-05-07T13:24:46;3.20;;;1.42;;
77775;SDS011;66965;43.328;6.668;2023-05-07T13:27:12;3.10;;;1.25;;
77775;SDS011;66965;43.328;6.668;2023-05-07T13:32:02;5.85;;;1.65;;
77775;SDS011;66965;43.328;6.668;2023-05-07T13:36:52;4.63;;;1.73;;
77775;SDS011;66965;43.328;6.668;2023-05-07T13:39:18;3.03;;;1.43;;
77775;SDS011;66965;43.328;6.668;2023-05-07T13:41:43;4.67;;;1.50;;
77775;SDS011;66965;43.328;6.668;2023-05-07T13:44:08;3.77;;;1.60;;
77775;SDS011;66965;43.328;6.668;2023-05-07T13:46:34;4.10;;;1.50;;
77775;SDS011;66965;43.328;6.668;2023-05-07T13:51:24;4.97;;;2.00;;
77775;SDS011;66965;43.328;6.668;2023-05-07T13:53:50;3.63;;;1.52;;
77775;SDS011;66965;43.328;6.668;2023-05-07T13:56:17;6.05;;;2.03;;
77775;SDS011;66965;43.328;6.668;2023-05-07T14:01:07;3.88;;;1.75;;
77775;SDS011;66965;43.328;6.668;2023-05-07T14:05:59;5.00;;;1.70;;
77775;SDS011;66965;43.328;6.668;2023-05-07T14:08:25;6.22;;;1.67;;
77775;SDS011;66965;43.328;6.668;2023-05-07T14:13:15;4.55;;;1.80;;
77775;SDS011;66965;43.328;6.668;2023-05-07T14:18:08;3.55;;;1.67;;
77775;SDS011;66965;43.328;6.668;2023-05-07T14:23:01;3.97;;;1.40;;
77775;SDS011;66965;43.328;6.668;2023-05-07T14:25:26;3.10;;;1.43;;
77775;SDS011;66965;43.328;6.668;2023-05-07T14:30:17;3.15;;;1.48;;
77775;SDS011;66965;43.328;6.668;2023-05-07T14:35:07;4.63;;;1.50;;
77775;SDS011;66965;43.328;6.668;2023-05-07T14:39:58;3.73;;;1.80;;
77775;SDS011;66965;43.328;6.668;2023-05-07T14:44:48;4.50;;;1.50;;
77775;SDS011;66965;43.328;6.668;2023-05-07T14:47:14;3.83;;;1.50;;
77775;SDS011;66965;43.328;6.668;2023-05-07T14:49:40;3.13;;;1.52;;
77775;SDS011;66965;43.328;6.668;2023-05-07T14:52:08;4.10;;;1.65;;
77775;SDS011;66965;43.328;6.668;2023-05-07T14:54:34;5.38;;;1.83;;
77775;SDS011;66965;43.328;6.668;2023-05-07T14:59:25;5.53;;;1.70;;
77775;SDS011;66965;43.328;6.668;2023-05-07T15:04:16;3.70;;;1.60;;
77775;SDS011;66965;43.328;6.668;2023-05-07T15:09:06;4.07;;;1.70;;
77775;SDS011;66965;43.328;6.668;2023-05-07T15:11:33;4.15;;;1.70;;
77775;SDS011;66965;43.328;6.668;2023-05-07T15:13:58;5.13;;;2.10;;
77775;SDS011;66965;43.328;6.668;2023-05-07T15:16:24;7.63;;;1.90;;
77775;SDS011;66965;43.328;6.668;2023-05-07T15:18:50;4.97;;;2.03;;
77775;SDS011;66965;43.328;6.668;2023-05-07T15:21:15;3.70;;;1.60;;
77775;SDS011;66965;43.328;6.668;2023-05-07T15:23:40;4.30;;;1.63;;
77775;SDS011;66965;43.328;6.668;2023-05-07T15:26:06;4.60;;;2.08;;
77775;SDS011;66965;43.328;6.668;2023-05-07T15:28:33;5.60;;;1.70;;
77775;SDS011;66965;43.328;6.668;2023-05-07T15:30:58;6.55;;;1.83;;
77775;SDS011;66965;43.328;6.668;2023-05-07T15:33:23;4.83;;;2.30;;
77775;SDS011;66965;43.328;6.668;2023-05-07T15:35:49;7.45;;;1.85;;
77775;SDS011;66965;43.328;6.668;2023-05-07T15:38:14;3.58;;;1.80;;
77775;SDS011;66965;43.328;6.668;2023-05-07T15:40:40;4.97;;;2.05;;
77775;SDS011;66965;43.328;6.668;2023-05-07T15:43:09;8.98;;;2.10;;
77775;SDS011;66965;43.328;6.668;2023-05-07T15:45:38;7.72;;;2.50;;
77775;SDS011;66965;43.328;6.668;2023-05-07T15:48:04;9.45;;;2.53;;
77775;SDS011;66965;43.328;6.668;2023-05-07T15:50:29;4.73;;;1.93;;
77775;SDS011;66965;43.328;6.668;2023-05-07T15:52:54;5.07;;;2.27;;
77775;SDS011;66965;43.328;6.668;2023-05-07T15:55:20;6.82;;;2.78;;
77775;SDS011;66965;43.328;6.668;2023-05-07T15:57:45;4.90;;;2.47;;
77775;SDS011;66965;43.328;6.668;2023-05-07T16:00:11;6.75;;;3.60;;
77775;SDS011;66965;43.328;6.668;2023-05-07T16:02:38;4.90;;;1.77;;
77775;SDS011;66965;43.328;6.668;2023-05-07T16:05:03;4.68;;;1.70;;
77775;SDS011;66965;43.328;6.668;2023-05-07T16:07:29;4.63;;;2.10;;
77775;SDS011;66965;43.328;6.668;2023-05-07T16:09:54;4.10;;;2.00;;
77775;SDS011;66965;43.328;6.668;2023-05-07T16:12:19;5.10;;;2.00;;
77775;SDS011;66965;43.328;6.668;2023-05-07T16:14:45;3.57;;;1.83;;
77775;SDS011;66965;43.328;6.668;2023-05-07T16:17:10;5.07;;;2.07;;